Time;durP1;ratioP1;P1;durP2;ratioP2;P2;SDS_P1;SDS_P2;PMS_P1;PMS_P2;Temp;Humidity;BMP_temperature;BMP_pressure;BME280_temperature;BME280_humidity;BME280_pressure;Samples;Min_cycle;Max_cycle;Signal;HPM_P1;HPM_P2
2022/06/17 00:00:56;;;;;;;9.63;4.70;;;;;;;12.74;68.22;101562.83;1727429;82;21089;-83
2022/06/17 00:03:25;;;;;;;5.35;3.62;;;;;;;12.73;68.29;101566.77;1713590;82;21071;-83
2022/06/17 00:05:53;;;;;;;8.45;4.03;;;;;;;12.73;68.39;101568.98;1721875;82;21834;-84
2022/06/17 00:08:24;;;;;;;7.67;3.42;;;;;;;12.74;68.54;101569.86;1734261;82;21780;-84
2022/06/17 00:10:51;;;;;;;8.83;5.08;;;;;;;12.73;68.60;101565.02;1715809;82;21080;-83
2022/06/17 00:13:19;;;;;;;6.95;4.25;;;;;;;12.73;68.77;101565.45;1719025;82;21119;-81
2022/06/17 00:15:45;;;;;;;6.12;4.22;;;;;;;12.71;68.81;101554.83;1718931;82;21055;-83
2022/06/17 00:18:14;;;;;;;8.78;5.12;;;;;;;12.73;68.86;101562.37;1723460;82;21027;-83
2022/06/17 00:20:41;;;;;;;9.65;5.00;;;;;;;12.74;69.01;101564.14;1723811;82;21818;-83
2022/06/17 00:23:20;;;;;;;6.47;3.70;;;;;;;12.75;69.02;101571.23;1721814;82;21058;-84
2022/06/17 00:25:48;;;;;;;8.83;4.00;;;;;;;12.74;69.11;101566.79;1726513;82;21121;-84
2022/06/17 00:28:18;;;;;;;6.00;3.12;;;;;;;12.74;69.18;101571.19;1732332;82;21078;-84
2022/06/17 00:30:46;;;;;;;5.85;4.40;;;;;;;12.73;69.30;101572.05;1720538;81;21634;-84
2022/06/17 00:33:14;;;;;;;8.85;4.25;;;;;;;12.73;69.29;101573.38;1729426;82;21786;-83
2022/06/17 00:35:50;;;;;;;4.87;3.22;;;;;;;12.71;69.38;101577.72;1715717;82;21072;-83
2022/06/17 00:38:29;;;;;;;9.95;4.28;;;;;;;12.70;69.44;101578.12;1714164;83;21092;-82
2022/06/17 00:40:57;;;;;;;6.70;3.15;;;;;;;12.70;69.53;101576.80;1714185;83;21064;-83
2022/06/17 00:43:33;;;;;;;7.90;3.62;;;;;;;12.70;69.64;101579.44;1721717;82;21607;-84
2022/06/17 00:46:33;;;;;;;7.55;3.80;;;;;;;12.68;69.61;101578.50;1732795;81;21344;-84
2022/06/17 00:49:05;;;;;;;7.58;4.90;;;;;;;12.67;69.71;101583.73;1745668;81;21051;-84
2022/06/17 00:51:40;;;;;;;4.72;3.30;;;;;;;12.66;69.85;101583.28;1732427;81;21126;-83
2022/06/17 00:54:32;;;;;;;5.62;3.27;;;;;;;12.63;69.93;101578.78;1731848;81;21676;-84
2022/06/17 00:57:03;;;;;;;7.58;3.90;;;;;;;12.62;70.04;101579.66;1725698;81;21606;-82
2022/06/17 00:59:31;;;;;;;6.62;3.40;;;;;;;12.60;70.20;101586.64;1732403;81;23037;-82
2022/06/17 01:02:04;;;;;;;7.05;4.05;;;;;;;12.59;70.23;101580.87;1740506;81;21130;-81
2022/06/17 01:04:38;;;;;;;6.28;3.35;;;;;;;12.56;70.31;101584.33;1735648;81;21146;-84
2022/06/17 01:07:19;;;;;;;9.15;3.17;;;;;;;12.56;70.40;101582.13;1702158;83;21051;-82
2022/06/17 01:09:58;;;;;;;9.25;3.45;;;;;;;12.54;70.47;101586.03;1699865;83;21154;-82
2022/06/17 01:12:34;;;;;;;4.83;3.17;;;;;;;12.55;70.59;101584.27;1712556;83;21772;-83
2022/06/17 01:15:00;;;;;;;5.37;3.30;;;;;;;12.55;70.67;101578.99;1680353;83;21082;-84
2022/06/17 01:17:30;;;;;;;9.25;3.37;;;;;;;12.54;70.75;101586.46;1696866;83;21081;-84
2022/06/17 01:19:58;;;;;;;6.92;3.30;;;;;;;12.53;70.79;101589.50;1719975;83;21023;-83
2022/06/17 01:22:52;;;;;;;6.12;2.90;;;;;;;12.53;70.86;101589.94;1719157;83;21098;-82
2022/06/17 01:25:41;;;;;;;6.22;3.17;;;;;;;12.52;70.90;101586.41;1719788;83;21772;-82
2022/06/17 01:28:11;;;;;;;6.53;3.22;;;;;;;12.52;71.00;101590.37;1716559;83;21839;-84
2022/06/17 01:30:51;;;;;;;6.53;3.02;;;;;;;12.51;71.06;101598.23;1719729;83;21051;-84
2022/06/17 01:33:31;;;;;;;6.70;3.17;;;;;;;12.51;71.17;101589.88;1689334;84;21093;-84
2022/06/17 01:36:20;;;;;;;6.87;2.85;;;;;;;12.51;71.28;101599.56;1689267;84;21063;-82
2022/06/17 01:38:49;;;;;;;6.20;2.98;;;;;;;12.53;71.38;101597.86;1717766;83;21708;-83
2022/06/17 01:41:17;;;;;;;4.10;2.80;;;;;;;12.52;71.42;101597.38;1666252;84;21572;-83
2022/06/17 01:43:54;;;;;;;5.70;3.12;;;;;;;12.52;71.49;101596.05;1690743;84;21090;-83
2022/06/17 01:46:38;;;;;;;9.65;2.85;;;;;;;12.53;71.57;101593.89;1710860;83;21118;-83
2022/06/17 01:49:29;;;;;;;5.67;3.50;;;;;;;12.53;71.63;101587.30;1695902;83;21027;-84
2022/06/17 01:52:08;;;;;;;8.60;3.33;;;;;;;12.55;71.79;101594.84;1738717;82;21899;-83
2022/06/17 01:54:46;;;;;;;5.25;2.58;;;;;;;12.55;71.90;101595.72;1742173;82;21099;-83
2022/06/17 01:57:16;;;;;;;5.97;2.92;;;;;;;12.58;71.88;101604.19;1729597;82;21352;-83
2022/06/17 01:59:49;;;;;;;8.73;3.20;;;;;;;12.59;71.95;101605.95;1732071;82;21122;-84
2022/06/17 02:02:16;;;;;;;6.53;3.10;;;;;;;12.60;72.04;101605.12;1682831;85;21071;-83
2022/06/17 02:04:50;;;;;;;5.50;2.70;;;;;;;12.62;72.08;101602.98;1742897;82;22567;-82
2022/06/17 02:07:44;;;;;;;6.87;3.25;;;;;;;12.63;72.10;101602.16;1740030;82;21051;-83
2022/06/17 02:10:10;;;;;;;7.67;3.25;;;;;;;12.64;72.09;101601.28;1696632;82;21726;-84
2022/06/17 02:12:37;;;;;;;7.28;2.85;;;;;;;12.65;72.13;101606.17;1742844;82;21692;-84
2022/06/17 02:15:04;;;;;;;7.15;2.70;;;;;;;12.66;72.13;101603.09;1724011;81;21142;-82
2022/06/17 02:17:34;;;;;;;8.73;2.95;;;;;;;12.65;72.17;101602.20;1688165;82;21729;-83
2022/06/17 02:20:01;;;;;;;7.53;2.92;;;;;;;12.65;72.15;101606.17;1696313;82;21181;-84
2022/06/17 02:22:30;;;;;;;5.12;3.10;;;;;;;12.62;72.20;101600.34;1713357;82;21059;-84
2022/06/17 02:25:04;;;;;;;5.00;2.95;;;;;;;12.64;72.26;101603.92;1714059;82;21091;-82
2022/06/17 02:27:31;;;;;;;;;;;;;;;12.65;72.33;101600.89;1709634;82;21080;-82
2022/06/17 02:29:58;;;;;;;6.17;3.33;;;;;;;12.66;72.41;101597.81;1685816;83;21777;-84
2022/06/17 02:32:30;;;;;;;4.58;2.87;;;;;;;12.68;72.41;101596.11;1729992;82;21257;-82
2022/06/17 02:35:23;;;;;;;6.37;3.12;;;;;;;12.70;72.46;101602.33;1737290;82;21142;-82
2022/06/17 02:37:52;;;;;;;7.17;3.00;;;;;;;12.72;72.43;101599.30;1739795;82;21043;-83
2022/06/17 02:40:35;;;;;;;7.17;3.27;;;;;;;12.74;72.53;101593.20;1744253;82;21074;-82
2022/06/17 02:43:09;;;;;;;7.60;3.37;;;;;;;12.78;72.54;101596.44;1722833;81;22799;-82
2022/06/17 02:45:41;;;;;;;10.05;3.17;;;;;;;12.81;72.54;101591.66;1712611;82;21148;-82
2022/06/17 02:48:27;;;;;;;5.58;2.85;;;;;;;12.83;72.59;101592.16;1697137;82;21094;-81
2022/06/17 02:50:57;;;;;;;4.58;2.72;;;;;;;12.87;72.63;101591.83;1716228;82;21092;-84
2022/06/17 02:53:33;;;;;;;7.25;2.72;;;;;;;12.94;72.65;101592.91;1713253;82;21099;-84
2022/06/17 02:56:02;;;;;;;8.10;3.80;;;;;;;12.99;72.66;101589.55;1711326;82;21767;-84
2022/06/17 02:58:52;;;;;;;9.25;3.52;;;;;;;13.06;72.68;101585.31;1721056;82;21091;-84
2022/06/17 03:01:24;;;;;;;6.42;2.72;;;;;;;13.10;72.67;101591.19;1702933;82;21161;-83
2022/06/17 03:03:51;;;;;;;9.30;3.60;;;;;;;13.17;72.65;101586.51;1735066;82;21055;-83
2022/06/17 03:06:29;;;;;;;4.87;3.10;;;;;;;13.25;72.65;101596.00;1722295;82;21134;-83
2022/06/17 03:08:55;;;;;;;5.95;2.80;;;;;;;13.34;72.60;101589.65;1725858;82;21812;-85
2022/06/17 03:11:22;;;;;;;6.20;3.45;;;;;;;13.41;72.55;101590.29;1728245;82;21071;-83
2022/06/17 03:13:51;;;;;;;7.70;2.83;;;;;;;13.51;72.54;101586.56;1718445;82;21130;-85
2022/06/17 03:16:18;;;;;;;9.58;3.10;;;;;;;13.61;72.43;101589.94;1721735;82;21120;-84
2022/06/17 03:18:45;;;;;;;6.42;3.08;;;;;;;13.70;72.38;101594.14;1722704;82;21106;-83
2022/06/17 03:21:14;;;;;;;6.22;3.10;;;;;;;13.80;72.34;101589.98;1733064;82;21746;-83
2022/06/17 03:23:57;;;;;;;6.12;3.00;;;;;;;13.93;72.30;101592.50;1717155;82;21080;-84
2022/06/17 03:26:29;;;;;;;9.55;3.35;;;;;;;14.08;72.34;101588.91;1687467;82;21123;-83
2022/06/17 03:28:56;;;;;;;6.40;3.20;;;;;;;14.50;73.03;101594.72;1739709;82;21078;-84
2022/06/17 03:31:46;;;;;;;6.15;2.60;;;;;;;15.85;74.55;101587.69;1728098;82;21055;-84
2022/06/17 03:34:17;;;;;;;5.10;2.37;;;;;;;17.01;73.00;101580.95;1711549;82;21765;-83
2022/06/17 03:37:09;;;;;;;5.10;2.72;;;;;;;18.53;71.80;101584.96;1719315;82;21145;-84
2022/06/17 03:39:41;;;;;;;4.47;2.50;;;;;;;18.76;67.97;101583.73;1725571;82;21125;-83
2022/06/17 03:42:29;;;;;;;4.92;2.58;;;;;;;18.27;66.26;101586.14;1700301;84;21088;-83
2022/06/17 03:45:17;;;;;;;8.43;3.08;;;;;;;17.88;66.13;101587.17;1708141;83;21613;-84
2022/06/17 03:48:13;;;;;;;5.62;2.20;;;;;;;17.79;66.07;101587.50;1715849;81;21757;-83
2022/06/17 03:50:44;;;;;;;5.30;2.70;;;;;;;18.01;66.37;101585.95;1736162;82;21106;-82
2022/06/17 03:53:27;;;;;;;5.20;2.10;;;;;;;19.00;67.22;101584.77;1715445;82;21589;-85
2022/06/17 03:55:57;;;;;;;4.35;2.00;;;;;;;21.18;67.60;101584.17;1729439;82;21841;-85
2022/06/17 03:58:24;;;;;;;7.25;2.30;;;;;;;23.78;65.57;101574.64;1723312;81;21431;-84
2022/06/17 04:01:14;;;;;;;5.22;2.12;;;;;;;25.86;62.40;101583.84;1730326;82;22657;-84
2022/06/17 04:03:44;;;;;;;8.98;2.30;;;;;;;27.41;59.12;101579.48;1719315;82;21071;-85
2022/06/17 04:06:18;;;;;;;3.98;2.00;;;;;;;28.81;55.88;101590.00;1717974;82;21228;-85
2022/06/17 04:08:57;;;;;;;4.47;2.00;;;;;;;29.77;53.65;101587.13;1732109;82;21131;-87
2022/06/17 04:11:28;;;;;;;5.92;2.05;;;;;;;30.73;51.47;101590.66;1739451;82;21642;-86
2022/06/17 04:13:58;;;;;;;5.08;2.15;;;;;;;31.64;49.70;101595.86;1719715;82;21763;-83
2022/06/17 04:16:42;;;;;;;3.20;1.80;;;;;;;32.50;47.57;101599.59;1720860;82;21169;-88
2022/06/17 04:19:20;;;;;;;7.00;2.27;;;;;;;33.18;46.04;101591.83;1710660;83;21071;-87
2022/06/17 04:21:47;;;;;;;5.85;2.45;;;;;;;33.87;44.08;101596.02;1729649;81;21035;-90
2022/06/17 04:24:22;;;;;;;2.77;1.80;;;;;;;34.45;43.36;101602.53;1702333;82;21114;-86
2022/06/17 04:26:54;;;;;;;5.72;1.70;;;;;;;35.02;41.11;101598.94;1732361;82;21774;-89
2022/06/17 04:29:43;;;;;;;4.22;1.82;;;;;;;35.04;39.49;101597.88;1727059;82;21116;-84
2022/06/17 04:32:26;;;;;;;3.72;1.65;;;;;;;35.26;38.67;101597.86;1730233;82;21109;-84
2022/06/17 04:34:53;;;;;;;;;;;;;;;35.43;37.55;101593.50;1703186;82;21118;-86
2022/06/17 04:37:21;;;;;;;2.90;1.85;;;;;;;35.95;36.87;101596.48;1724859;82;20536;-86
2022/06/17 04:39:57;;;;;;;5.25;1.67;;;;;;;36.33;36.61;101597.05;1737385;82;21776;-87
2022/06/17 04:42:36;;;;;;;5.75;2.20;;;;;;;36.99;35.64;101599.17;1733543;82;21606;-85
2022/06/17 04:45:04;;;;;;;4.33;1.87;;;;;;;37.20;33.95;101596.73;1737106;82;21074;-87
2022/06/17 04:47:31;;;;;;;2.52;1.57;;;;;;;37.26;33.59;101599.05;1709043;81;21092;-87
2022/06/17 04:50:02;;;;;;;5.35;1.90;;;;;;;37.51;33.10;101598.56;1705164;83;21102;-85
2022/06/17 04:52:34;;;;;;;3.22;1.70;;;;;;;37.88;32.25;101602.62;1700817;82;21786;-88
2022/06/17 04:55:02;;;;;;;4.58;1.87;;;;;;;38.20;31.72;101598.78;1644098;84;21092;-87
2022/06/17 04:57:29;;;;;;;4.67;2.50;;;;;;;38.36;30.98;101598.93;1649915;85;21088;-84
2022/06/17 04:59:58;;;;;;;5.25;2.08;;;;;;;38.49;30.58;101595.06;1650305;85;21074;-84
2022/06/17 05:02:27;;;;;;;4.55;1.85;;;;;;;38.83;30.15;101601.98;1640228;86;21102;-84
2022/06/17 05:04:58;;;;;;;5.33;2.05;;;;;;;39.12;29.23;101602.00;1647512;85;21798;-85
2022/06/17 05:07:30;;;;;;;3.83;1.65;;;;;;;39.12;29.13;101598.77;1649201;85;21112;-85
2022/06/17 05:10:01;;;;;;;5.47;2.02;;;;;;;39.37;28.80;101604.97;1650704;85;21151;-86
2022/06/17 05:12:33;;;;;;;5.75;1.60;;;;;;;39.72;28.55;101595.13;1623208;86;21107;-85
2022/06/17 05:15:06;;;;;;;4.47;1.67;;;;;;;40.09;28.14;101594.70;1636410;85;21069;-83
2022/06/17 05:17:34;;;;;;;3.40;1.82;;;;;;;40.15;27.13;101591.91;1699026;84;21727;-82
2022/06/17 05:20:01;;;;;;;4.67;1.55;;;;;;;40.08;26.51;101597.11;1711921;82;21048;-82
2022/06/17 05:22:37;;;;;;;5.03;1.32;;;;;;;39.93;26.54;101598.45;1691017;83;21995;-83
2022/06/17 05:25:12;;;;;;;2.70;1.57;;;;;;;39.96;26.41;101594.89;1703639;83;21150;-86
2022/06/17 05:27:39;;;;;;;3.47;1.62;;;;;;;40.08;26.13;101595.73;1713462;82;21111;-83
2022/06/17 05:30:09;;;;;;;2.72;1.50;;;;;;;40.25;25.77;101599.77;1704105;83;22612;-85
2022/06/17 05:32:35;;;;;;;4.22;1.60;;;;;;;40.41;25.47;101602.95;1707032;82;21078;-85
2022/06/17 05:35:02;;;;;;;3.60;1.40;;;;;;;40.46;25.20;101600.28;1702542;82;21057;-86
2022/06/17 05:37:30;;;;;;;5.42;1.87;;;;;;;40.45;24.75;101599.39;1706996;83;21306;-83
2022/06/17 05:39:57;;;;;;;3.10;1.52;;;;;;;40.29;24.45;101604.00;1696590;83;21157;-84
2022/06/17 05:42:27;;;;;;;3.12;1.60;;;;;;;39.41;23.97;101600.44;1705605;83;21803;-85
2022/06/17 05:44:52;;;;;;;5.97;2.10;;;;;;;37.20;24.20;101606.34;1707974;82;21070;-83
2022/06/17 05:47:19;;;;;;;4.12;1.70;;;;;;;34.79;25.20;101602.67;1715997;82;21664;-86
2022/06/17 05:49:45;;;;;;;4.42;1.80;;;;;;;32.58;26.48;101605.53;1723904;83;21175;-86
2022/06/17 05:52:14;;;;;;;3.85;1.77;;;;;;;30.94;27.95;101603.25;1715949;83;21082;-87
2022/06/17 05:54:41;;;;;;;5.75;1.55;;;;;;;29.65;29.12;101608.36;1710959;82;21770;-83
2022/06/17 05:57:08;;;;;;;5.20;2.40;;;;;;;28.53;30.25;101605.95;1709171;83;21099;-85
2022/06/17 05:59:34;;;;;;;4.85;1.92;;;;;;;27.50;31.16;101605.36;1714024;82;21043;-84
2022/06/17 06:02:03;;;;;;;5.87;2.77;;;;;;;26.49;32.29;101606.50;1715485;83;21630;-86
2022/06/17 06:04:31;;;;;;;3.75;2.30;;;;;;;25.66;33.38;101604.56;1712553;83;21091;-86
2022/06/17 06:06:59;;;;;;;3.70;1.67;;;;;;;25.11;34.65;101602.66;1719201;83;22520;-84
2022/06/17 06:09:26;;;;;;;5.30;1.90;;;;;;;24.63;35.49;101608.58;1713046;82;21484;-84
2022/06/17 06:11:55;;;;;;;7.90;2.02;;;;;;;24.20;36.29;101614.73;1714558;82;21061;-84
2022/06/17 06:14:21;;;;;;;4.97;2.70;;;;;;;23.78;37.01;101620.34;1715673;83;21065;-84
2022/06/17 06:16:48;;;;;;;5.72;2.80;;;;;;;23.38;37.83;101616.94;1709622;83;21134;-85
2022/06/17 06:19:15;;;;;;;6.35;2.83;;;;;;;22.98;38.51;101617.45;1714953;82;21755;-84
2022/06/17 06:21:42;;;;;;;5.85;2.75;;;;;;;22.56;39.25;101621.05;1713260;82;21052;-83
2022/06/17 06:24:09;;;;;;;5.60;1.90;;;;;;;22.18;40.00;101621.84;1718062;82;21061;-82
2022/06/17 06:26:37;;;;;;;7.97;2.60;;;;;;;21.91;40.73;101618.50;1717362;82;21075;-86
2022/06/17 06:29:06;;;;;;;3.37;1.80;;;;;;;21.73;41.24;101619.56;1713649;82;21107;-83
2022/06/17 06:31:37;;;;;;;5.50;2.12;;;;;;;21.63;41.76;101623.19;1715641;82;21954;-82
2022/06/17 06:34:03;;;;;;;4.92;2.15;;;;;;;21.51;42.55;101619.23;1714816;82;21043;-86
2022/06/17 06:36:30;;;;;;;3.67;1.82;;;;;;;21.51;42.55;101619.23;1711492;83;21636;-87
2022/06/17 06:38:57;;;;;;;5.92;1.85;;;;;;;21.48;42.99;101616.14;1711174;82;21126;-84
2022/06/17 06:41:24;;;;;;;7.70;1.80;;;;;;;21.55;43.26;101623.70;1708408;83;21142;-92
2022/06/17 06:43:51;;;;;;;9.00;1.77;;;;;;;21.56;43.34;101622.78;1715994;82;21746;-84
2022/06/17 06:46:19;;;;;;;4.97;1.95;;;;;;;21.47;43.54;101609.45;1712902;83;21016;-87
2022/06/17 06:48:46;;;;;;;4.75;1.98;;;;;;;21.54;43.69;101624.58;1704963;82;21047;-84
2022/06/17 06:51:13;;;;;;;5.22;1.85;;;;;;;21.51;43.92;101624.17;1672830;85;21096;-87
2022/06/17 06:53:39;;;;;;;5.30;2.25;;;;;;;21.55;44.13;101630.40;1647821;86;21108;-84
2022/06/17 06:56:06;;;;;;;3.83;1.65;;;;;;;21.60;44.22;101639.73;1648007;87;21812;-86
2022/06/17 06:58:33;;;;;;;8.60;5.00;;;;;;;21.59;44.25;101636.17;1642855;87;21061;-85
2022/06/17 07:00:59;;;;;;;4.47;1.98;;;;;;;21.52;44.46;101642.00;1648178;87;21081;-83
2022/06/17 07:03:29;;;;;;;7.22;2.37;;;;;;;21.46;44.51;101631.80;1647688;85;21124;-83
2022/06/17 07:06:00;;;;;;;4.62;1.90;;;;;;;21.49;44.84;101638.02;1663477;85;21111;-88
2022/06/17 07:08:29;;;;;;;4.90;3.58;;;;;;;21.32;45.32;101618.42;1665515;86;21826;-88
2022/06/17 07:10:59;;;;;;;4.75;3.02;;;;;;;21.32;45.32;101618.42;1642927;86;21060;-87
2022/06/17 07:13:30;;;;;;;4.15;2.37;;;;;;;21.47;45.13;101642.50;1663002;85;21206;-83
2022/06/17 07:15:58;;;;;;;4.22;2.37;;;;;;;21.36;45.22;101619.76;1647248;86;21401;-85
2022/06/17 07:18:30;;;;;;;6.05;2.95;;;;;;;21.36;45.22;101619.76;1660345;86;21601;-86
2022/06/17 07:21:00;;;;;;;6.78;2.40;;;;;;;21.48;45.27;101646.94;1660265;85;21778;-87
2022/06/17 07:23:34;;;;;;;2.20;1.50;;;;;;;21.50;45.42;101640.24;1662532;86;21087;-86
2022/06/17 07:26:08;;;;;;;5.15;2.05;;;;;;;21.54;45.38;101644.22;1654070;86;21589;-84
2022/06/17 07:28:35;;;;;;;4.12;2.47;;;;;;;21.55;45.58;101649.15;1658660;86;21095;-84
2022/06/17 07:31:01;;;;;;;4.60;2.12;;;;;;;21.55;45.58;101649.15;1666463;85;21083;-84
2022/06/17 07:33:30;;;;;;;5.40;2.00;;;;;;;21.62;45.67;101657.56;1663070;85;21669;-87
2022/06/17 07:36:00;;;;;;;5.20;2.20;;;;;;;21.72;45.74;101659.30;1664143;85;21075;-88
2022/06/17 07:41:23;;;;;;;6.20;1.85;;;;;;;21.91;46.07;101660.52;1664863;86;21083;-85
2022/06/17 07:43:51;;;;;;;4.55;2.10;;;;;;;22.04;46.05;101665.34;1659450;86;21558;-85
2022/06/17 07:46:18;;;;;;;3.95;1.67;;;;;;;22.13;46.10;101659.90;1661168;86;21725;-91
2022/06/17 07:48:45;;;;;;;4.28;2.10;;;;;;;22.21;46.00;101664.73;1664544;85;21076;-88
2022/06/17 07:51:13;;;;;;;5.37;3.35;;;;;;;22.15;45.28;101664.80;1678502;85;21036;-90
2022/06/17 07:53:42;;;;;;;4.15;2.55;;;;;;;22.00;45.32;101664.89;1667964;85;21123;-85
2022/06/17 07:56:13;;;;;;;4.58;2.40;;;;;;;21.96;45.39;101662.72;1672080;84;21074;-86
2022/06/17 07:58:40;;;;;;;4.05;2.33;;;;;;;22.01;45.51;101668.03;1652400;84;21817;-88
2022/06/17 08:01:06;;;;;;;4.22;2.50;;;;;;;22.04;45.45;101663.53;1675222;84;21083;-89
2022/06/17 08:03:34;;;;;;;3.65;1.77;;;;;;;22.36;45.55;101661.52;1669461;85;21086;-89
2022/06/17 08:06:02;;;;;;;5.50;2.80;;;;;;;22.36;45.55;101661.52;1674554;85;21115;-85
2022/06/17 08:08:29;;;;;;;8.63;5.83;;;;;;;22.52;45.36;101671.17;1663137;85;21078;-88
2022/06/17 08:10:59;;;;;;;4.03;2.80;;;;;;;22.76;44.88;101666.47;1670884;85;21774;-87
2022/06/17 08:13:26;;;;;;;3.25;1.60;;;;;;;22.95;44.56;101666.68;1672656;85;21079;-90
2022/06/17 08:15:56;;;;;;;7.15;2.45;;;;;;;23.26;44.34;101671.27;1672006;85;21119;-86
2022/06/17 08:18:23;;;;;;;3.85;1.98;;;;;;;23.62;44.15;101676.16;1672126;85;21111;-86
2022/06/17 08:20:49;;;;;;;2.80;1.57;;;;;;;23.92;43.27;101677.52;1671843;85;21078;-81
2022/06/17 08:23:17;;;;;;;2.42;1.67;;;;;;;24.04;42.81;101679.12;1670804;85;21775;-85
2022/06/17 08:25:49;;;;;;;2.92;1.50;;;;;;;24.24;42.77;101683.71;1670572;85;21580;-91
2022/06/17 08:28:16;;;;;;;;;;;;;;;24.43;42.59;101688.31;1654317;85;21111;-82
2022/06/17 08:30:46;;;;;;;3.22;1.87;;;;;;;24.38;41.41;101683.92;1696537;83;20534;-82
2022/06/17 08:33:13;;;;;;;6.83;1.82;;;;;;;24.11;41.35;101689.33;1667900;85;21150;-86
2022/06/17 08:35:44;;;;;;;5.22;1.85;;;;;;;23.94;41.69;101681.53;1653261;86;22596;-82
2022/06/17 08:38:24;;;;;;;3.55;1.72;;;;;;;24.00;41.53;101690.38;1724435;82;22153;-80
2022/06/17 08:40:57;;;;;;;2.58;1.62;;;;;;;23.86;41.54;101678.50;1722639;82;21086;-84
2022/06/17 08:43:47;;;;;;;3.45;1.55;;;;;;;23.79;41.79;101685.34;1725076;82;21051;-82
2022/06/17 08:46:28;;;;;;;3.10;1.60;;;;;;;23.61;41.68;101687.37;1729910;82;22192;-82
2022/06/17 08:49:16;;;;;;;3.77;2.00;;;;;;;23.42;41.59;101692.55;1729026;82;21775;-83
2022/06/17 08:52:07;;;;;;;4.60;2.05;;;;;;;23.11;41.72;101692.07;1724186;82;21279;-84
2022/06/17 08:54:42;;;;;;;3.10;1.62;;;;;;;23.04;42.09;101702.86;1730373;82;21074;-85
2022/06/17 08:57:29;;;;;;;2.33;1.60;;;;;;;22.93;42.22;101706.55;1724871;82;21663;-87
2022/06/17 09:00:42;;;;;;;4.80;1.67;;;;;;;22.83;42.30;101704.42;1723279;82;21669;-85
2022/06/17 09:03:38;;;;;;;2.42;1.60;;;;;;;22.84;42.48;101709.78;1730329;82;21876;-90
2022/06/17 09:06:13;;;;;;;2.45;1.20;;;;;;;22.85;42.42;101704.83;1724922;82;21079;-88
2022/06/17 09:09:11;;;;;;;3.62;1.60;;;;;;;22.89;42.42;101709.25;1726699;82;21624;-84
2022/06/17 09:12:03;;;;;;;6.35;1.52;;;;;;;22.90;42.41;101706.14;1724831;82;21068;-89
2022/06/17 09:14:40;;;;;;;4.35;2.00;;;;;;;22.98;42.56;101706.94;1721436;82;21090;-89
2022/06/17 09:17:38;;;;;;;4.45;1.55;;;;;;;23.00;42.57;101690.34;1706799;82;21766;-89
2022/06/17 09:20:07;;;;;;;3.17;1.52;;;;;;;23.15;42.39;101708.11;1723781;82;21020;-87
2022/06/17 09:22:41;;;;;;;3.05;1.50;;;;;;;23.29;42.16;101698.09;1723232;82;21847;-84
2022/06/17 09:25:08;;;;;;;;;;;;;;;23.54;41.96;101696.85;1730011;82;21512;-89
2022/06/17 09:27:39;;;;;;;3.85;1.47;;;;;;;23.86;41.48;101701.83;1721292;82;20202;-88
2022/06/17 09:30:19;;;;;;;6.25;1.40;;;;;;;23.98;40.95;101703.42;1723331;82;21769;-89
2022/06/17 09:33:12;;;;;;;2.42;1.27;;;;;;;24.13;40.60;101707.21;1730752;82;21044;-87
2022/06/17 09:36:14;;;;;;;4.42;1.17;;;;;;;24.38;40.33;101701.41;1728273;82;21087;-89
2022/06/17 09:38:47;;;;;;;2.83;1.02;;;;;;;24.67;40.24;101709.48;1734547;82;21055;-86
2022/06/17 09:41:48;;;;;;;3.33;1.27;;;;;;;24.84;40.24;101704.19;1717077;83;21324;-89
2022/06/17 09:44:35;;;;;;;6.33;2.00;;;;;;;25.16;40.17;101704.48;1719603;82;21750;-88
2022/06/17 09:47:10;;;;;;;3.83;1.60;;;;;;;25.37;39.27;101708.09;1717041;82;21126;-85
2022/06/17 09:49:48;;;;;;;4.83;1.50;;;;;;;25.22;38.25;101709.27;1718688;82;21028;-88
2022/06/17 09:52:40;;;;;;;5.37;1.70;;;;;;;25.15;38.23;101708.98;1729284;82;21519;-85
2022/06/17 09:55:21;;;;;;;4.12;2.05;;;;;;;25.10;38.18;101705.49;1711833;82;21688;-89
2022/06/17 09:57:58;;;;;;;3.65;2.22;;;;;;;25.08;38.17;101701.06;1713473;82;21759;-89
2022/06/17 10:00:29;;;;;;;4.03;1.35;;;;;;;24.96;38.01;101714.30;1727972;82;21070;-87
2022/06/17 10:03:25;;;;;;;5.03;1.80;;;;;;;24.77;38.20;101713.77;1731123;82;21035;-85
2022/06/17 10:06:19;;;;;;;5.40;2.00;;;;;;;24.66;38.12;101714.42;1727939;82;21063;-88
2022/06/17 10:09:12;;;;;;;7.37;2.35;;;;;;;24.46;38.38;101714.30;1727073;82;21083;-84
2022/06/17 10:12:15;;;;;;;2.55;1.70;;;;;;;24.31;38.61;101716.80;1727312;82;21757;-84
2022/06/17 10:14:50;;;;;;;4.10;2.12;;;;;;;24.16;38.87;101718.41;1722337;82;21071;-86
2022/06/17 10:20:56;;;;;;;6.37;1.60;;;;;;;24.30;39.38;101719.04;1727470;82;21158;-87
2022/06/17 10:23:43;;;;;;;4.83;1.90;;;;;;;24.48;39.25;101717.85;1724209;81;21044;-86
2022/06/17 10:26:49;;;;;;;5.83;1.60;;;;;;;24.55;39.29;101715.95;1726442;82;21763;-86
2022/06/17 10:29:30;;;;;;;5.22;1.95;;;;;;;24.61;39.22;101730.20;1729215;82;21059;-86
2022/06/17 10:31:56;;;;;;;2.70;1.45;;;;;;;24.64;39.41;101727.47;1725623;82;21032;-83
2022/06/17 10:34:49;;;;;;;6.20;1.92;;;;;;;24.76;39.58;101728.16;1718753;82;21103;-83
2022/06/17 10:37:16;;;;;;;5.97;1.40;;;;;;;24.80;39.50;101732.10;1719782;82;21027;-83
2022/06/17 10:39:45;;;;;;;4.72;1.57;;;;;;;24.69;39.45;101727.84;1704431;83;21090;-84
2022/06/17 10:42:16;;;;;;;4.22;1.60;;;;;;;24.68;39.24;101729.63;1710617;83;21039;-87
2022/06/17 10:44:49;;;;;;;6.67;3.17;;;;;;;24.54;39.23;101735.27;1704154;83;21103;-91
2022/06/17 10:47:33;;;;;;;6.15;1.72;;;;;;;24.43;39.39;101739.44;1708020;82;21098;-86
2022/06/17 10:50:18;;;;;;;3.50;1.32;;;;;;;24.37;39.49;101738.20;1699003;82;21627;-84
2022/06/17 10:53:20;;;;;;;3.47;1.50;;;;;;;24.40;39.47;101745.33;1733426;82;22049;-84
2022/06/17 10:55:49;;;;;;;5.22;1.60;;;;;;;24.39;39.34;101735.50;1732040;82;21214;-84
2022/06/17 10:58:20;;;;;;;5.87;1.80;;;;;;;24.64;39.42;101729.25;1718446;82;21070;-83
2022/06/17 11:01:06;;;;;;;4.03;1.40;;;;;;;24.85;39.32;101732.00;1723307;82;21098;-83
2022/06/17 11:03:36;;;;;;;3.17;1.50;;;;;;;24.87;38.92;101726.59;1713891;82;21189;-83
2022/06/17 11:06:28;;;;;;;3.87;1.70;;;;;;;24.69;39.10;101735.92;1726239;82;21875;-83
2022/06/17 11:08:55;;;;;;;4.10;1.52;;;;;;;24.49;39.42;101744.30;1727354;82;21142;-84
2022/06/17 11:12:03;;;;;;;5.90;1.50;;;;;;;24.32;39.78;101737.85;1731603;82;21581;-89
2022/06/17 11:14:47;;;;;;;4.33;1.85;;;;;;;24.38;39.90;101755.23;1724915;82;22332;-87
2022/06/17 11:17:31;;;;;;;7.65;1.60;;;;;;;24.45;40.87;101751.53;1714248;82;21106;-92
2022/06/17 11:20:01;;;;;;;4.62;1.65;;;;;;;24.70;40.21;101749.79;1713486;82;21780;-86
2022/06/17 11:22:37;;;;;;;5.40;1.47;;;;;;;25.07;40.21;101749.11;1731270;82;21051;-86
2022/06/17 11:25:09;;;;;;;3.35;1.62;;;;;;;25.40;39.56;101760.59;1734655;82;21047;-86
2022/06/17 11:27:41;;;;;;;4.53;1.70;;;;;;;25.70;39.20;101741.98;1733701;82;21047;-88
2022/06/17 11:30:16;;;;;;;2.40;1.10;;;;;;;26.08;38.63;101750.15;1726552;82;21598;-88
2022/06/17 11:32:45;;;;;;;4.22;1.62;;;;;;;26.26;38.12;101743.40;1734775;82;21767;-84
2022/06/17 11:35:38;;;;;;;5.97;1.82;;;;;;;26.47;38.10;101744.23;1733671;82;21127;-85
2022/06/17 11:38:17;;;;;;;1.55;1.17;;;;;;;26.59;37.54;101736.27;1700554;82;21093;-91
2022/06/17 11:40:53;;;;;;;3.17;1.57;;;;;;;26.59;37.60;101744.36;1711733;82;21083;-85
2022/06/17 11:43:41;;;;;;;5.17;1.80;;;;;;;26.49;37.72;101749.59;1701652;82;21105;-84
2022/06/17 11:46:23;;;;;;;3.62;1.45;;;;;;;26.29;37.69;101742.86;1726831;82;21895;-91
2022/06/17 11:48:57;;;;;;;3.52;1.60;;;;;;;26.08;37.50;101746.98;1718804;82;21743;-83
2022/06/17 11:51:35;;;;;;;4.55;2.05;;;;;;;25.88;37.87;101749.22;1730513;82;21078;-86
2022/06/17 11:54:07;;;;;;;2.77;1.60;;;;;;;25.85;38.03;101749.31;1723674;82;21159;-85
2022/06/17 11:56:48;;;;;;;2.95;1.27;;;;;;;25.75;37.86;101740.08;1739727;82;21079;-91
2022/06/17 11:59:24;;;;;;;5.20;1.90;;;;;;;25.65;37.95;101745.23;1727718;82;21827;-87
2022/06/17 12:02:03;;;;;;;4.25;1.62;;;;;;;25.72;37.88;101749.58;1733003;81;21083;-91
2022/06/17 12:04:41;;;;;;;6.15;1.50;;;;;;;25.84;37.67;101756.96;1726602;82;21132;-85
2022/06/17 12:07:48;;;;;;;2.50;1.50;;;;;;;25.90;37.67;101740.20;1675814;82;21059;-85